sensor_id;sensor_type;location;lat;lon;timestamp;P1;durP1;ratioP1;P2;durP2;ratioP2
49241;SDS011;35079;52.704;13.814;2024-03-22T00:00:12;18.52;;;12.32;;
49241;SDS011;35079;52.704;13.814;2024-03-22T00:02:38;20.08;;;12.10;;
49241;SDS011;35079;52.704;13.814;2024-03-22T00:05:04;18.15;;;11.63;;
49241;SDS011;35079;52.704;13.814;2024-03-22T00:07:29;20.23;;;11.65;;
49241;SDS011;35079;52.704;13.814;2024-03-22T00:09:56;16.75;;;11.48;;
49241;SDS011;35079;52.704;13.814;2024-03-22T00:12:21;23.83;;;14.43;;
49241;SDS011;35079;52.704;13.814;2024-03-22T00:14:48;24.83;;;13.82;;
49241;SDS011;35079;52.704;13.814;2024-03-22T00:17:13;22.77;;;13.98;;
49241;SDS011;35079;52.704;13.814;2024-03-22T00:19:39;23.45;;;13.40;;
49241;SDS011;35079;52.704;13.814;2024-03-22T00:22:05;26.25;;;14.60;;
49241;SDS011;35079;52.704;13.814;2024-03-22T00:24:30;21.95;;;13.10;;
49241;SDS011;35079;52.704;13.814;2024-03-22T00:26:56;24.10;;;13.15;;
49241;SDS011;35079;52.704;13.814;2024-03-22T00:29:21;21.58;;;13.02;;
49241;SDS011;35079;52.704;13.814;2024-03-22T00:31:47;20.83;;;12.63;;
49241;SDS011;35079;52.704;13.814;2024-03-22T00:34:13;23.40;;;13.90;;
49241;SDS011;35079;52.704;13.814;2024-03-22T00:36:38;20.40;;;12.73;;
49241;SDS011;35079;52.704;13.814;2024-03-22T00:39:04;21.90;;;13.52;;
49241;SDS011;35079;52.704;13.814;2024-03-22T00:41:30;22.02;;;13.00;;
49241;SDS011;35079;52.704;13.814;2024-03-22T00:43:56;20.80;;;13.20;;
49241;SDS011;35079;52.704;13.814;2024-03-22T00:46:23;19.25;;;12.68;;
49241;SDS011;35079;52.704;13.814;2024-03-22T00:48:48;20.77;;;13.48;;
49241;SDS011;35079;52.704;13.814;2024-03-22T00:51:14;18.75;;;12.55;;
49241;SDS011;35079;52.704;13.814;2024-03-22T00:53:39;22.02;;;12.73;;
49241;SDS011;35079;52.704;13.814;2024-03-22T00:56:05;18.02;;;12.32;;
49241;SDS011;35079;52.704;13.814;2024-03-22T00:58:31;20.10;;;12.70;;
49241;SDS011;35079;52.704;13.814;2024-03-22T01:00:57;18.42;;;12.18;;
49241;SDS011;35079;52.704;13.814;2024-03-22T01:03:22;22.88;;;13.75;;
49241;SDS011;35079;52.704;13.814;2024-03-22T01:05:48;19.63;;;11.65;;
49241;SDS011;35079;52.704;13.814;2024-03-22T01:08:14;22.10;;;14.02;;
49241;SDS011;35079;52.704;13.814;2024-03-22T01:10:40;21.38;;;14.13;;
49241;SDS011;35079;52.704;13.814;2024-03-22T01:13:06;22.85;;;14.13;;
49241;SDS011;35079;52.704;13.814;2024-03-22T01:15:32;20.02;;;13.35;;
49241;SDS011;35079;52.704;13.814;2024-03-22T01:17:57;21.77;;;13.50;;
49241;SDS011;35079;52.704;13.814;2024-03-22T01:20:23;19.27;;;11.88;;
49241;SDS011;35079;52.704;13.814;2024-03-22T01:22:49;25.30;;;14.10;;
49241;SDS011;35079;52.704;13.814;2024-03-22T01:25:14;25.65;;;14.77;;
49241;SDS011;35079;52.704;13.814;2024-03-22T01:27:40;23.13;;;14.27;;
49241;SDS011;35079;52.704;13.814;2024-03-22T01:30:06;24.65;;;15.05;;
49241;SDS011;35079;52.704;13.814;2024-03-22T01:32:32;20.67;;;12.50;;
49241;SDS011;35079;52.704;13.814;2024-03-22T01:34:57;18.73;;;12.60;;
49241;SDS011;35079;52.704;13.814;2024-03-22T01:37:23;21.55;;;13.52;;
49241;SDS011;35079;52.704;13.814;2024-03-22T01:39:49;20.65;;;13.48;;
49241;SDS011;35079;52.704;13.814;2024-03-22T01:42:14;21.85;;;13.15;;
49241;SDS011;35079;52.704;13.814;2024-03-22T01:44:40;24.70;;;14.13;;
49241;SDS011;35079;52.704;13.814;2024-03-22T01:47:06;22.42;;;14.25;;
49241;SDS011;35079;52.704;13.814;2024-03-22T01:49:32;23.48;;;14.30;;
49241;SDS011;35079;52.704;13.814;2024-03-22T01:51:58;17.67;;;12.15;;
49241;SDS011;35079;52.704;13.814;2024-03-22T01:54:23;22.08;;;14.38;;
49241;SDS011;35079;52.704;13.814;2024-03-22T01:56:49;22.13;;;14.35;;
49241;SDS011;35079;52.704;13.814;2024-03-22T01:59:15;21.42;;;14.65;;
49241;SDS011;35079;52.704;13.814;2024-03-22T02:01:41;21.00;;;13.38;;
49241;SDS011;35079;52.704;13.814;2024-03-22T02:04:07;23.52;;;14.65;;
49241;SDS011;35079;52.704;13.814;2024-03-22T02:06:33;19.90;;;13.35;;
49241;SDS011;35079;52.704;13.814;2024-03-22T02:08:59;21.23;;;14.48;;
49241;SDS011;35079;52.704;13.814;2024-03-22T02:11:25;24.05;;;14.32;;
49241;SDS011;35079;52.704;13.814;2024-03-22T02:13:51;20.02;;;12.98;;
49241;SDS011;35079;52.704;13.814;2024-03-22T02:16:17;24.92;;;15.68;;
49241;SDS011;35079;52.704;13.814;2024-03-22T02:18:43;23.13;;;14.15;;
49241;SDS011;35079;52.704;13.814;2024-03-22T02:21:09;21.95;;;14.48;;
49241;SDS011;35079;52.704;13.814;2024-03-22T02:23:36;24.67;;;14.32;;
49241;SDS011;35079;52.704;13.814;2024-03-22T02:26:03;26.38;;;14.93;;
49241;SDS011;35079;52.704;13.814;2024-03-22T02:28:30;26.50;;;15.82;;
49241;SDS011;35079;52.704;13.814;2024-03-22T02:30:57;23.23;;;15.18;;
49241;SDS011;35079;52.704;13.814;2024-03-22T02:33:23;25.63;;;14.80;;
49241;SDS011;35079;52.704;13.814;2024-03-22T02:35:49;26.88;;;16.88;;
49241;SDS011;35079;52.704;13.814;2024-03-22T02:38:15;25.13;;;15.20;;
49241;SDS011;35079;52.704;13.814;2024-03-22T02:40:45;27.13;;;16.80;;
49241;SDS011;35079;52.704;13.814;2024-03-22T02:43:11;29.33;;;18.70;;
49241;SDS011;35079;52.704;13.814;2024-03-22T02:45:37;26.60;;;16.48;;
49241;SDS011;35079;52.704;13.814;2024-03-22T02:48:03;28.60;;;18.05;;
49241;SDS011;35079;52.704;13.814;2024-03-22T02:50:33;29.38;;;17.83;;
49241;SDS011;35079;52.704;13.814;2024-03-22T02:52:59;29.05;;;17.20;;
49241;SDS011;35079;52.704;13.814;2024-03-22T02:55:25;28.88;;;17.70;;
49241;SDS011;35079;52.704;13.814;2024-03-22T02:57:51;26.88;;;17.30;;
49241;SDS011;35079;52.704;13.814;2024-03-22T03:00:17;32.83;;;19.40;;
49241;SDS011;35079;52.704;13.814;2024-03-22T03:02:43;25.13;;;17.20;;
49241;SDS011;35079;52.704;13.814;2024-03-22T03:05:10;30.15;;;18.02;;
49241;SDS011;35079;52.704;13.814;2024-03-22T03:07:35;28.38;;;17.88;;
49241;SDS011;35079;52.704;13.814;2024-03-22T03:10:01;26.13;;;16.25;;
49241;SDS011;35079;52.704;13.814;2024-03-22T03:12:27;31.83;;;18.83;;
49241;SDS011;35079;52.704;13.814;2024-03-22T03:14:52;33.15;;;19.05;;
49241;SDS011;35079;52.704;13.814;2024-03-22T03:17:18;32.80;;;19.25;;
49241;SDS011;35079;52.704;13.814;2024-03-22T03:19:44;30.25;;;19.63;;
49241;SDS011;35079;52.704;13.814;2024-03-22T03:22:10;32.38;;;20.23;;
49241;SDS011;35079;52.704;13.814;2024-03-22T03:24:35;30.50;;;18.52;;
49241;SDS011;35079;52.704;13.814;2024-03-22T03:27:01;33.00;;;19.55;;
49241;SDS011;35079;52.704;13.814;2024-03-22T03:29:27;32.53;;;19.42;;
49241;SDS011;35079;52.704;13.814;2024-03-22T03:31:53;30.00;;;18.15;;
49241;SDS011;35079;52.704;13.814;2024-03-22T03:34:19;27.17;;;17.55;;
49241;SDS011;35079;52.704;13.814;2024-03-22T03:36:45;30.80;;;17.70;;
49241;SDS011;35079;52.704;13.814;2024-03-22T03:39:11;29.70;;;17.10;;
49241;SDS011;35079;52.704;13.814;2024-03-22T03:41:37;29.60;;;18.10;;
49241;SDS011;35079;52.704;13.814;2024-03-22T03:44:03;33.53;;;19.20;;
49241;SDS011;35079;52.704;13.814;2024-03-22T03:46:28;27.40;;;16.83;;
49241;SDS011;35079;52.704;13.814;2024-03-22T03:48:54;32.83;;;18.23;;
49241;SDS011;35079;52.704;13.814;2024-03-22T03:51:20;33.70;;;18.70;;
49241;SDS011;35079;52.704;13.814;2024-03-22T03:53:45;28.95;;;17.48;;
49241;SDS011;35079;52.704;13.814;2024-03-22T03:56:11;29.45;;;16.48;;
49241;SDS011;35079;52.704;13.814;2024-03-22T03:58:37;32.35;;;18.13;;
49241;SDS011;35079;52.704;13.814;2024-03-22T04:01:06;28.77;;;17.10;;
49241;SDS011;35079;52.704;13.814;2024-03-22T04:03:32;29.08;;;17.27;;
49241;SDS011;35079;52.704;13.814;2024-03-22T04:05:58;33.72;;;17.17;;
49241;SDS011;35079;52.704;13.814;2024-03-22T04:08:24;31.35;;;18.63;;
49241;SDS011;35079;52.704;13.814;2024-03-22T04:10:51;29.65;;;17.27;;
49241;SDS011;35079;52.704;13.814;2024-03-22T04:13:18;30.88;;;17.58;;
49241;SDS011;35079;52.704;13.814;2024-03-22T04:15:43;29.85;;;16.50;;
49241;SDS011;35079;52.704;13.814;2024-03-22T04:18:09;31.67;;;17.85;;
49241;SDS011;35079;52.704;13.814;2024-03-22T04:20:34;32.55;;;16.77;;
49241;SDS011;35079;52.704;13.814;2024-03-22T04:23:00;35.58;;;17.73;;
49241;SDS011;35079;52.704;13.814;2024-03-22T04:25:26;27.75;;;15.50;;
49241;SDS011;35079;52.704;13.814;2024-03-22T04:27:51;32.58;;;17.25;;
49241;SDS011;35079;52.704;13.814;2024-03-22T04:30:17;31.65;;;16.73;;
49241;SDS011;35079;52.704;13.814;2024-03-22T04:32:45;28.92;;;15.98;;
49241;SDS011;35079;52.704;13.814;2024-03-22T04:35:11;29.60;;;16.55;;
49241;SDS011;35079;52.704;13.814;2024-03-22T04:37:37;28.48;;;15.63;;
49241;SDS011;35079;52.704;13.814;2024-03-22T04:40:03;29.45;;;16.80;;
49241;SDS011;35079;52.704;13.814;2024-03-22T04:42:29;28.85;;;16.90;;
49241;SDS011;35079;52.704;13.814;2024-03-22T04:44:54;33.22;;;17.40;;
49241;SDS011;35079;52.704;13.814;2024-03-22T04:47:20;31.35;;;16.38;;
49241;SDS011;35079;52.704;13.814;2024-03-22T04:49:46;30.75;;;17.35;;
49241;SDS011;35079;52.704;13.814;2024-03-22T04:52:11;28.63;;;15.05;;
49241;SDS011;35079;52.704;13.814;2024-03-22T04:54:37;30.50;;;16.45;;
49241;SDS011;35079;52.704;13.814;2024-03-22T04:57:02;29.90;;;16.05;;
49241;SDS011;35079;52.704;13.814;2024-03-22T04:59:28;26.13;;;14.90;;
49241;SDS011;35079;52.704;13.814;2024-03-22T05:01:54;29.98;;;16.42;;
49241;SDS011;35079;52.704;13.814;2024-03-22T05:04:19;28.70;;;16.58;;
49241;SDS011;35079;52.704;13.814;2024-03-22T05:06:45;32.13;;;16.80;;
49241;SDS011;35079;52.704;13.814;2024-03-22T05:09:10;33.05;;;17.02;;
49241;SDS011;35079;52.704;13.814;2024-03-22T05:11:36;27.33;;;14.18;;
49241;SDS011;35079;52.704;13.814;2024-03-22T05:14:02;27.60;;;14.93;;
49241;SDS011;35079;52.704;13.814;2024-03-22T05:16:28;27.95;;;15.25;;
49241;SDS011;35079;52.704;13.814;2024-03-22T05:18:54;29.15;;;15.95;;
49241;SDS011;35079;52.704;13.814;2024-03-22T05:21:19;30.23;;;15.05;;
49241;SDS011;35079;52.704;13.814;2024-03-22T05:23:45;27.23;;;15.20;;
49241;SDS011;35079;52.704;13.814;2024-03-22T05:26:11;26.58;;;14.88;;
49241;SDS011;35079;52.704;13.814;2024-03-22T05:28:37;31.30;;;15.93;;
49241;SDS011;35079;52.704;13.814;2024-03-22T05:31:02;29.30;;;13.85;;
49241;SDS011;35079;52.704;13.814;2024-03-22T05:33:28;25.65;;;14.40;;
49241;SDS011;35079;52.704;13.814;2024-03-22T05:35:54;29.58;;;15.13;;
49241;SDS011;35079;52.704;13.814;2024-03-22T05:38:20;25.17;;;14.55;;
49241;SDS011;35079;52.704;13.814;2024-03-22T05:40:46;29.80;;;15.38;;
49241;SDS011;35079;52.704;13.814;2024-03-22T05:43:12;27.90;;;14.63;;
49241;SDS011;35079;52.704;13.814;2024-03-22T05:45:38;24.80;;;13.57;;
49241;SDS011;35079;52.704;13.814;2024-03-22T05:48:06;27.40;;;15.35;;
49241;SDS011;35079;52.704;13.814;2024-03-22T05:50:32;26.75;;;14.00;;
49241;SDS011;35079;52.704;13.814;2024-03-22T05:52:58;26.63;;;14.25;;
49241;SDS011;35079;52.704;13.814;2024-03-22T05:55:23;25.52;;;14.25;;
49241;SDS011;35079;52.704;13.814;2024-03-22T05:57:52;25.05;;;14.00;;
49241;SDS011;35079;52.704;13.814;2024-03-22T06:00:18;25.25;;;13.35;;
49241;SDS011;35079;52.704;13.814;2024-03-22T06:02:43;25.33;;;13.57;;
49241;SDS011;35079;52.704;13.814;2024-03-22T06:05:09;26.70;;;14.55;;
49241;SDS011;35079;52.704;13.814;2024-03-22T06:07:34;25.52;;;13.73;;
49241;SDS011;35079;52.704;13.814;2024-03-22T06:10:06;27.63;;;15.00;;
49241;SDS011;35079;52.704;13.814;2024-03-22T06:12:35;28.65;;;14.93;;
49241;SDS011;35079;52.704;13.814;2024-03-22T06:15:01;25.45;;;13.88;;
49241;SDS011;35079;52.704;13.814;2024-03-22T06:17:31;29.00;;;15.43;;
49241;SDS011;35079;52.704;13.814;2024-03-22T06:19:58;25.90;;;13.43;;
49241;SDS011;35079;52.704;13.814;2024-03-22T06:22:24;25.58;;;13.65;;
49241;SDS011;35079;52.704;13.814;2024-03-22T06:24:50;23.35;;;12.77;;
49241;SDS011;35079;52.704;13.814;2024-03-22T06:27:15;28.77;;;14.98;;
49241;SDS011;35079;52.704;13.814;2024-03-22T06:29:41;24.77;;;13.88;;
49241;SDS011;35079;52.704;13.814;2024-03-22T06:32:07;24.48;;;14.68;;
49241;SDS011;35079;52.704;13.814;2024-03-22T06:34:33;24.15;;;13.73;;
49241;SDS011;35079;52.704;13.814;2024-03-22T06:36:59;24.80;;;13.52;;
49241;SDS011;35079;52.704;13.814;2024-03-22T06:39:25;28.70;;;15.20;;
49241;SDS011;35079;52.704;13.814;2024-03-22T06:41:50;26.60;;;15.05;;
49241;SDS011;35079;52.704;13.814;2024-03-22T06:44:16;26.75;;;14.43;;
49241;SDS011;35079;52.704;13.814;2024-03-22T06:46:41;25.67;;;14.93;;
49241;SDS011;35079;52.704;13.814;2024-03-22T06:49:07;22.90;;;13.68;;
49241;SDS011;35079;52.704;13.814;2024-03-22T06:51:33;25.02;;;14.05;;
49241;SDS011;35079;52.704;13.814;2024-03-22T06:53:58;25.80;;;13.98;;
49241;SDS011;35079;52.704;13.814;2024-03-22T06:56:24;22.73;;;13.40;;
49241;SDS011;35079;52.704;13.814;2024-03-22T06:58:50;24.33;;;14.07;;
49241;SDS011;35079;52.704;13.814;2024-03-22T07:01:15;21.88;;;13.25;;
49241;SDS011;35079;52.704;13.814;2024-03-22T07:03:41;24.27;;;13.88;;
49241;SDS011;35079;52.704;13.814;2024-03-22T07:06:10;24.13;;;13.18;;
49241;SDS011;35079;52.704;13.814;2024-03-22T07:08:36;24.73;;;14.10;;
49241;SDS011;35079;52.704;13.814;2024-03-22T07:11:04;24.65;;;13.13;;
49241;SDS011;35079;52.704;13.814;2024-03-22T07:13:31;21.17;;;12.82;;
49241;SDS011;35079;52.704;13.814;2024-03-22T07:15:57;27.23;;;14.60;;
49241;SDS011;35079;52.704;13.814;2024-03-22T07:18:22;22.50;;;12.70;;
49241;SDS011;35079;52.704;13.814;2024-03-22T07:20:48;22.33;;;13.45;;
49241;SDS011;35079;52.704;13.814;2024-03-22T07:23:14;24.23;;;13.10;;
49241;SDS011;35079;52.704;13.814;2024-03-22T07:25:39;24.00;;;12.85;;
49241;SDS011;35079;52.704;13.814;2024-03-22T07:28:07;22.35;;;12.75;;
49241;SDS011;35079;52.704;13.814;2024-03-22T07:30:33;27.33;;;14.65;;
49241;SDS011;35079;52.704;13.814;2024-03-22T07:33:00;25.67;;;14.43;;
49241;SDS011;35079;52.704;13.814;2024-03-22T07:35:26;23.25;;;13.70;;
49241;SDS011;35079;52.704;13.814;2024-03-22T07:37:51;26.42;;;13.52;;
49241;SDS011;35079;52.704;13.814;2024-03-22T07:40:18;20.88;;;12.57;;
49241;SDS011;35079;52.704;13.814;2024-03-22T07:42:45;23.20;;;12.43;;
49241;SDS011;35079;52.704;13.814;2024-03-22T07:45:10;24.60;;;13.85;;
49241;SDS011;35079;52.704;13.814;2024-03-22T07:47:36;25.77;;;13.63;;
49241;SDS011;35079;52.704;13.814;2024-03-22T07:50:02;21.85;;;13.75;;
49241;SDS011;35079;52.704;13.814;2024-03-22T07:52:28;22.80;;;12.82;;
49241;SDS011;35079;52.704;13.814;2024-03-22T07:54:54;21.80;;;12.68;;
49241;SDS011;35079;52.704;13.814;2024-03-22T07:57:20;22.92;;;13.43;;
49241;SDS011;35079;52.704;13.814;2024-03-22T07:59:46;23.25;;;12.63;;
49241;SDS011;35079;52.704;13.814;2024-03-22T08:02:12;24.77;;;14.23;;
49241;SDS011;35079;52.704;13.814;2024-03-22T08:04:40;22.75;;;13.57;;
49241;SDS011;35079;52.704;13.814;2024-03-22T08:07:06;32.15;;;16.77;;
49241;SDS011;35079;52.704;13.814;2024-03-22T08:09:32;29.65;;;16.58;;
49241;SDS011;35079;52.704;13.814;2024-03-22T08:11:57;26.02;;;13.88;;
49241;SDS011;35079;52.704;13.814;2024-03-22T08:14:23;21.80;;;14.10;;
49241;SDS011;35079;52.704;13.814;2024-03-22T08:16:48;26.02;;;14.82;;
49241;SDS011;35079;52.704;13.814;2024-03-22T08:19:14;28.67;;;14.98;;
49241;SDS011;35079;52.704;13.814;2024-03-22T08:21:40;30.30;;;15.80;;
49241;SDS011;35079;52.704;13.814;2024-03-22T08:24:05;25.30;;;15.00;;
49241;SDS011;35079;52.704;13.814;2024-03-22T08:26:31;26.13;;;15.68;;
49241;SDS011;35079;52.704;13.814;2024-03-22T08:28:56;27.67;;;16.20;;
49241;SDS011;35079;52.704;13.814;2024-03-22T08:31:25;26.33;;;14.70;;
49241;SDS011;35079;52.704;13.814;2024-03-22T08:33:53;28.50;;;16.27;;
49241;SDS011;35079;52.704;13.814;2024-03-22T08:36:20;26.02;;;15.70;;
49241;SDS011;35079;52.704;13.814;2024-03-22T08:38:47;26.42;;;15.15;;
49241;SDS011;35079;52.704;13.814;2024-03-22T08:41:13;26.60;;;15.35;;
49241;SDS011;35079;52.704;13.814;2024-03-22T08:43:38;30.63;;;15.68;;
49241;SDS011;35079;52.704;13.814;2024-03-22T08:46:04;26.27;;;15.93;;
49241;SDS011;35079;52.704;13.814;2024-03-22T08:48:30;27.52;;;16.77;;
49241;SDS011;35079;52.704;13.814;2024-03-22T08:50:56;29.92;;;17.40;;
49241;SDS011;35079;52.704;13.814;2024-03-22T08:53:21;33.95;;;19.83;;
49241;SDS011;35079;52.704;13.814;2024-03-22T08:55:47;48.67;;;23.05;;
49241;SDS011;35079;52.704;13.814;2024-03-22T08:58:13;34.33;;;17.70;;
49241;SDS011;35079;52.704;13.814;2024-03-22T09:00:40;31.48;;;17.67;;
49241;SDS011;35079;52.704;13.814;2024-03-22T09:03:07;29.48;;;17.30;;
49241;SDS011;35079;52.704;13.814;2024-03-22T09:05:32;31.50;;;18.55;;
49241;SDS011;35079;52.704;13.814;2024-03-22T09:07:58;34.58;;;18.42;;
49241;SDS011;35079;52.704;13.814;2024-03-22T09:10:24;34.42;;;20.02;;
49241;SDS011;35079;52.704;13.814;2024-03-22T09:12:51;30.50;;;17.38;;
49241;SDS011;35079;52.704;13.814;2024-03-22T09:15:17;33.45;;;18.48;;
49241;SDS011;35079;52.704;13.814;2024-03-22T09:17:42;30.45;;;18.38;;
49241;SDS011;35079;52.704;13.814;2024-03-22T09:20:08;29.58;;;17.00;;
49241;SDS011;35079;52.704;13.814;2024-03-22T09:22:34;28.77;;;17.85;;
49241;SDS011;35079;52.704;13.814;2024-03-22T09:25:00;25.85;;;16.67;;
49241;SDS011;35079;52.704;13.814;2024-03-22T09:27:26;38.45;;;22.25;;
49241;SDS011;35079;52.704;13.814;2024-03-22T09:29:51;30.77;;;18.30;;
49241;SDS011;35079;52.704;13.814;2024-03-22T09:32:17;32.75;;;18.67;;
49241;SDS011;35079;52.704;13.814;2024-03-22T09:34:43;27.17;;;17.10;;
49241;SDS011;35079;52.704;13.814;2024-03-22T09:37:09;32.97;;;18.67;;
49241;SDS011;35079;52.704;13.814;2024-03-22T09:39:34;31.30;;;17.70;;
49241;SDS011;35079;52.704;13.814;2024-03-22T09:42:01;28.33;;;18.45;;
49241;SDS011;35079;52.704;13.814;2024-03-22T09:44:31;29.45;;;18.58;;
49241;SDS011;35079;52.704;13.814;2024-03-22T09:46:57;31.15;;;19.23;;
49241;SDS011;35079;52.704;13.814;2024-03-22T09:49:24;30.83;;;18.63;;
49241;SDS011;35079;52.704;13.814;2024-03-22T09:51:51;28.75;;;17.52;;
49241;SDS011;35079;52.704;13.814;2024-03-22T09:54:17;31.30;;;18.00;;
49241;SDS011;35079;52.704;13.814;2024-03-22T09:56:42;31.77;;;18.98;;
49241;SDS011;35079;52.704;13.814;2024-03-22T09:59:11;34.10;;;22.20;;
49241;SDS011;35079;52.704;13.814;2024-03-22T10:01:37;31.15;;;19.38;;
49241;SDS011;35079;52.704;13.814;2024-03-22T10:04:04;28.00;;;17.42;;
49241;SDS011;35079;52.704;13.814;2024-03-22T10:06:30;30.00;;;17.50;;
49241;SDS011;35079;52.704;13.814;2024-03-22T10:08:59;33.00;;;18.60;;
49241;SDS011;35079;52.704;13.814;2024-03-22T10:11:28;31.77;;;18.88;;
49241;SDS011;35079;52.704;13.814;2024-03-22T10:13:54;27.42;;;17.52;;
49241;SDS011;35079;52.704;13.814;2024-03-22T10:16:23;31.63;;;18.48;;
49241;SDS011;35079;52.704;13.814;2024-03-22T10:18:49;36.08;;;18.63;;
49241;SDS011;35079;52.704;13.814;2024-03-22T10:21:18;33.25;;;20.25;;
49241;SDS011;35079;52.704;13.814;2024-03-22T10:23:44;30.48;;;18.40;;
49241;SDS011;35079;52.704;13.814;2024-03-22T10:26:12;27.92;;;17.88;;
49241;SDS011;35079;52.704;13.814;2024-03-22T10:28:43;30.17;;;18.25;;
49241;SDS011;35079;52.704;13.814;2024-03-22T10:31:11;31.02;;;17.90;;
49241;SDS011;35079;52.704;13.814;2024-03-22T10:33:37;28.95;;;17.65;;
49241;SDS011;35079;52.704;13.814;2024-03-22T10:36:03;29.55;;;18.17;;
49241;SDS011;35079;52.704;13.814;2024-03-22T10:38:30;28.52;;;17.35;;
49241;SDS011;35079;52.704;13.814;2024-03-22T10:40:57;30.83;;;18.00;;
49241;SDS011;35079;52.704;13.814;2024-03-22T10:43:25;27.45;;;17.08;;
49241;SDS011;35079;52.704;13.814;2024-03-22T10:45:51;28.23;;;18.05;;
49241;SDS011;35079;52.704;13.814;2024-03-22T10:48:21;28.25;;;17.83;;
49241;SDS011;35079;52.704;13.814;2024-03-22T10:50:51;28.13;;;17.30;;
49241;SDS011;35079;52.704;13.814;2024-03-22T10:53:23;28.10;;;17.08;;
49241;SDS011;35079;52.704;13.814;2024-03-22T10:55:50;30.77;;;17.63;;
49241;SDS011;35079;52.704;13.814;2024-03-22T10:58:18;31.85;;;18.05;;
49241;SDS011;35079;52.704;13.814;2024-03-22T11:00:47;32.13;;;16.83;;
49241;SDS011;35079;52.704;13.814;2024-03-22T11:03:16;26.50;;;16.52;;
49241;SDS011;35079;52.704;13.814;2024-03-22T11:05:48;29.15;;;17.58;;
49241;SDS011;35079;52.704;13.814;2024-03-22T11:10:50;29.52;;;17.52;;
49241;SDS011;35079;52.704;13.814;2024-03-22T11:13:16;24.80;;;16.85;;
49241;SDS011;35079;52.704;13.814;2024-03-22T11:15:43;25.50;;;16.83;;
49241;SDS011;35079;52.704;13.814;2024-03-22T11:18:09;26.25;;;15.93;;
49241;SDS011;35079;52.704;13.814;2024-03-22T11:20:37;25.35;;;16.25;;
49241;SDS011;35079;52.704;13.814;2024-03-22T11:23:04;28.40;;;15.65;;
49241;SDS011;35079;52.704;13.814;2024-03-22T11:25:33;27.95;;;17.05;;
49241;SDS011;35079;52.704;13.814;2024-03-22T11:27:59;28.50;;;17.63;;
49241;SDS011;35079;52.704;13.814;2024-03-22T11:30:30;25.80;;;16.23;;
49241;SDS011;35079;52.704;13.814;2024-03-22T11:32:57;26.33;;;16.08;;
49241;SDS011;35079;52.704;13.814;2024-03-22T11:35:26;27.13;;;16.38;;
49241;SDS011;35079;52.704;13.814;2024-03-22T11:37:52;27.60;;;17.08;;
49241;SDS011;35079;52.704;13.814;2024-03-22T11:40:17;27.65;;;16.48;;
49241;SDS011;35079;52.704;13.814;2024-03-22T11:42:46;28.17;;;16.98;;
49241;SDS011;35079;52.704;13.814;2024-03-22T11:45:16;26.48;;;16.65;;
49241;SDS011;35079;52.704;13.814;2024-03-22T11:47:44;22.73;;;15.30;;
49241;SDS011;35079;52.704;13.814;2024-03-22T11:50:14;26.02;;;16.25;;
49241;SDS011;35079;52.704;13.814;2024-03-22T11:52:40;29.52;;;17.13;;
49241;SDS011;35079;52.704;13.814;2024-03-22T11:55:07;23.80;;;15.65;;
49241;SDS011;35079;52.704;13.814;2024-03-22T11:57:33;22.48;;;15.50;;
49241;SDS011;35079;52.704;13.814;2024-03-22T11:59:59;28.25;;;17.10;;
49241;SDS011;35079;52.704;13.814;2024-03-22T12:02:26;27.70;;;16.33;;
49241;SDS011;35079;52.704;13.814;2024-03-22T12:04:51;30.42;;;17.40;;
49241;SDS011;35079;52.704;13.814;2024-03-22T12:07:17;27.33;;;17.23;;
49241;SDS011;35079;52.704;13.814;2024-03-22T12:09:43;31.17;;;17.20;;
49241;SDS011;35079;52.704;13.814;2024-03-22T12:12:13;30.48;;;17.67;;
49241;SDS011;35079;52.704;13.814;2024-03-22T12:14:39;26.73;;;17.23;;
49241;SDS011;35079;52.704;13.814;2024-03-22T12:17:05;26.80;;;16.02;;
49241;SDS011;35079;52.704;13.814;2024-03-22T12:19:31;28.58;;;17.33;;
49241;SDS011;35079;52.704;13.814;2024-03-22T12:21:58;24.92;;;16.33;;
49241;SDS011;35079;52.704;13.814;2024-03-22T12:24:24;25.98;;;16.17;;
49241;SDS011;35079;52.704;13.814;2024-03-22T12:26:50;27.73;;;15.80;;
49241;SDS011;35079;52.704;13.814;2024-03-22T12:29:16;26.83;;;15.77;;
49241;SDS011;35079;52.704;13.814;2024-03-22T12:31:43;24.65;;;16.17;;
49241;SDS011;35079;52.704;13.814;2024-03-22T12:34:09;24.40;;;15.68;;
49241;SDS011;35079;52.704;13.814;2024-03-22T12:36:35;28.02;;;16.23;;
49241;SDS011;35079;52.704;13.814;2024-03-22T12:39:01;28.88;;;15.60;;
49241;SDS011;35079;52.704;13.814;2024-03-22T12:41:28;27.25;;;15.35;;
49241;SDS011;35079;52.704;13.814;2024-03-22T12:43:54;27.83;;;16.45;;
49241;SDS011;35079;52.704;13.814;2024-03-22T12:46:20;26.90;;;16.63;;
49241;SDS011;35079;52.704;13.814;2024-03-22T12:48:45;26.42;;;16.40;;
49241;SDS011;35079;52.704;13.814;2024-03-22T12:51:11;26.77;;;16.08;;
49241;SDS011;35079;52.704;13.814;2024-03-22T12:53:37;28.83;;;17.05;;
49241;SDS011;35079;52.704;13.814;2024-03-22T12:56:03;31.35;;;16.70;;
49241;SDS011;35079;52.704;13.814;2024-03-22T12:58:29;33.90;;;17.63;;
49241;SDS011;35079;52.704;13.814;2024-03-22T13:00:56;34.60;;;18.63;;
49241;SDS011;35079;52.704;13.814;2024-03-22T13:03:22;36.45;;;19.55;;
49241;SDS011;35079;52.704;13.814;2024-03-22T13:05:47;31.40;;;18.00;;
49241;SDS011;35079;52.704;13.814;2024-03-22T13:08:13;31.40;;;18.75;;
49241;SDS011;35079;52.704;13.814;2024-03-22T13:10:39;33.40;;;18.20;;
49241;SDS011;35079;52.704;13.814;2024-03-22T13:13:08;34.67;;;19.13;;
49241;SDS011;35079;52.704;13.814;2024-03-22T13:15:34;35.15;;;18.85;;
49241;SDS011;35079;52.704;13.814;2024-03-22T13:18:02;36.72;;;19.63;;
49241;SDS011;35079;52.704;13.814;2024-03-22T13:20:27;38.03;;;20.50;;
49241;SDS011;35079;52.704;13.814;2024-03-22T13:22:53;38.08;;;20.48;;
49241;SDS011;35079;52.704;13.814;2024-03-22T13:25:19;34.92;;;20.15;;
49241;SDS011;35079;52.704;13.814;2024-03-22T13:27:44;36.70;;;19.77;;
49241;SDS011;35079;52.704;13.814;2024-03-22T13:30:10;44.22;;;21.48;;
49241;SDS011;35079;52.704;13.814;2024-03-22T13:32:37;39.40;;;19.63;;
49241;SDS011;35079;52.704;13.814;2024-03-22T13:35:04;38.33;;;21.05;;
49241;SDS011;35079;52.704;13.814;2024-03-22T13:37:30;35.15;;;20.67;;
49241;SDS011;35079;52.704;13.814;2024-03-22T13:39:56;35.13;;;19.38;;
49241;SDS011;35079;52.704;13.814;2024-03-22T13:42:22;34.17;;;18.85;;
49241;SDS011;35079;52.704;13.814;2024-03-22T13:44:48;38.28;;;20.30;;
49241;SDS011;35079;52.704;13.814;2024-03-22T13:47:13;35.67;;;18.92;;
49241;SDS011;35079;52.704;13.814;2024-03-22T13:49:39;36.60;;;17.75;;
49241;SDS011;35079;52.704;13.814;2024-03-22T13:52:06;32.28;;;17.40;;
49241;SDS011;35079;52.704;13.814;2024-03-22T13:54:32;36.60;;;19.42;;
49241;SDS011;35079;52.704;13.814;2024-03-22T13:56:58;33.90;;;17.65;;
49241;SDS011;35079;52.704;13.814;2024-03-22T13:59:25;31.83;;;18.20;;
49241;SDS011;35079;52.704;13.814;2024-03-22T14:01:51;33.88;;;18.10;;
49241;SDS011;35079;52.704;13.814;2024-03-22T14:04:17;30.60;;;16.63;;